createdAt,value
2022-12-17T00:02:30.529Z,66481.50
2022-12-17T00:05:16.552Z,66482.06
2022-12-17T00:08:02.062Z,66477.59
2022-12-17T00:10:47.743Z,66484.28
2022-12-17T00:13:41.251Z,66479.13
2022-12-17T00:16:27.437Z,66477.59
2022-12-17T00:19:13.460Z,66477.03
2022-12-17T00:21:59.310Z,66478.72
2022-12-17T00:24:44.990Z,66479.59
2022-12-17T00:27:31.328Z,66430.72
2022-12-17T00:30:17.544Z,66477.03
2022-12-17T00:33:03.816Z,66475.34
2022-12-17T00:35:49.370Z,66474.22
2022-12-17T00:38:39.012Z,66473.88
2022-12-17T00:41:24.612Z,66476.69
2022-12-17T00:44:11.512Z,66474.47
2022-12-17T00:46:57.445Z,66473.34
2022-12-17T00:49:44.802Z,66475.00
2022-12-17T00:52:30.658Z,66482.63
2022-12-17T00:55:17.136Z,66482.63
2022-12-17T00:58:02.902Z,66478.38
2022-12-17T01:00:48.875Z,66480.59
2022-12-17T01:03:34.655Z,66478.94
2022-12-17T01:06:22.166Z,66480.59
2022-12-17T01:09:08.236Z,66482.06
2022-12-17T01:11:56.491Z,66480.94
2022-12-17T01:14:44.120Z,66481.50
2022-12-17T01:17:30.147Z,66480.38
2022-12-17T01:20:16.811Z,66480.38
2022-12-17T01:23:04.544Z,66476.91
2022-12-17T01:25:50.485Z,66483.97
2022-12-17T01:28:42.525Z,66485.41
2022-12-17T01:31:34.618Z,66478.59
2022-12-17T01:34:21.397Z,66483.38
2022-12-17T01:37:07.461Z,66489.66
2022-12-17T01:39:53.370Z,66487.28
2022-12-17T01:42:39.532Z,66491.78
2022-12-17T01:45:30.226Z,66500.84
2022-12-17T01:48:35.563Z,66446.91
2022-12-17T01:51:21.862Z,66493.56
2022-12-17T01:54:12.915Z,66492.13
2022-12-17T01:57:02.308Z,66486.97
2022-12-17T02:00:09.753Z,66488.06
2022-12-17T02:03:02.418Z,66493.22
2022-12-17T02:06:19.674Z,66493.78
2022-12-17T02:09:16.778Z,66496.03
2022-12-17T02:12:35.953Z,66496.47
2022-12-17T02:15:38.996Z,66499.38
2022-12-17T02:18:35.527Z,66499.38
2022-12-17T02:21:24.984Z,66451.38
2022-12-17T02:24:14.095Z,66496.59
2022-12-17T02:27:08.355Z,66497.13
2022-12-17T02:29:59.152Z,66496.78
2022-12-17T02:32:45.976Z,66495.91
2022-12-17T02:35:36.339Z,66497.13
2022-12-17T02:38:42.457Z,66498.81
2022-12-17T02:41:46.229Z,66498.81
2022-12-17T02:44:37.534Z,66496.78
2022-12-17T02:47:27.455Z,66496.78
2022-12-17T02:50:13.499Z,66495.69
2022-12-17T02:53:05.275Z,66498.25
2022-12-17T02:55:52.200Z,66495.69
2022-12-17T02:58:38.801Z,66496.47
2022-12-17T03:01:25.302Z,66500.50
2022-12-17T03:04:11.405Z,66500.50
2022-12-17T03:06:57.119Z,66506.97
2022-12-17T03:09:42.815Z,66506.09
2022-12-17T03:12:28.663Z,66506.63
2022-12-17T03:15:14.557Z,66508.09
2022-12-17T03:18:01.020Z,66511.09
2022-12-17T03:20:46.929Z,66511.44
2022-12-17T03:23:33.396Z,66514.25
2022-12-17T03:26:21.908Z,66509.31
2022-12-17T03:29:08.376Z,66513.66
2022-12-17T03:31:54.555Z,66508.88
2022-12-17T03:34:40.607Z,66515.34
2022-12-17T03:37:26.279Z,66510.78
2022-12-17T03:40:12.581Z,66517.03
2022-12-17T03:42:58.884Z,66508.53
2022-12-17T03:45:44.539Z,66509.66
2022-12-17T03:48:32.995Z,66515.56
2022-12-17T03:51:19.797Z,66514.44
2022-12-17T03:54:05.927Z,66518.72
2022-12-17T03:56:52.213Z,66518.03
2022-12-17T03:59:38.431Z,66517.81
2022-12-17T04:02:24.710Z,66517.81
2022-12-17T04:05:15.094Z,66518.94
2022-12-17T04:08:04.036Z,66520.59
2022-12-17T04:10:49.610Z,66518.59
2022-12-17T04:13:40.412Z,66525.28
2022-12-17T04:16:27.876Z,66523.59
2022-12-17T04:19:14.175Z,66535.69
2022-12-17T04:21:59.733Z,66528.31
2022-12-17T04:24:46.075Z,66532.91
2022-12-17T04:27:32.215Z,66530.53
2022-12-17T04:30:17.856Z,66536.25
2022-12-17T04:33:03.807Z,66534.78
2022-12-17T04:35:49.953Z,66535.38
2022-12-17T04:38:55.440Z,66536.81
2022-12-17T04:41:41.700Z,66539.94
2022-12-17T04:44:27.606Z,66537.59
2022-12-17T04:47:17.643Z,66542.41
2022-12-17T04:50:03.721Z,66537.94
2022-12-17T04:52:49.247Z,66541.28
2022-12-17T04:55:34.926Z,66537.81
2022-12-17T04:58:25.106Z,66537.03
2022-12-17T05:01:11.932Z,66542.75
2022-12-17T05:03:58.556Z,66534.44
2022-12-17T05:07:04.587Z,66537.38
2022-12-17T05:09:52.125Z,66530.53
2022-12-17T05:12:38.126Z,66533.09
2022-12-17T05:15:38.673Z,66533.09
2022-12-17T05:18:28.450Z,66534.25
2022-12-17T05:21:14.035Z,66534.25
2022-12-17T05:24:00.273Z,66537.59
2022-12-17T05:26:47.325Z,66543.84
2022-12-17T05:29:33.488Z,66540.16
2022-12-17T05:32:19.340Z,66542.75
2022-12-17T05:35:05.160Z,66542.63
2022-12-17T05:37:50.787Z,66542.25
2022-12-17T05:40:36.760Z,66550.19
2022-12-17T05:43:24.755Z,66544.84
2022-12-17T05:46:11.929Z,66547.41
2022-12-17T05:48:57.661Z,66551.53
2022-12-17T05:51:43.797Z,66553.34
2022-12-17T05:54:29.973Z,66555.25
2022-12-17T05:57:15.812Z,66557.47
2022-12-17T06:00:01.859Z,66550.09
2022-12-17T06:02:58.051Z,66555.44
2022-12-17T06:05:44.131Z,66558.56
2022-12-17T06:08:30.232Z,66555.44
2022-12-17T06:11:19.429Z,66559.16
2022-12-17T06:14:05.983Z,66559.16
2022-12-17T06:16:51.618Z,66559.59
2022-12-17T06:19:37.947Z,66570.88
2022-12-17T06:22:24.196Z,66564.16
2022-12-17T06:25:10.224Z,66567.88
2022-12-17T06:27:55.791Z,66562.72
2022-12-17T06:30:42.034Z,66557.56
2022-12-17T06:33:29.684Z,66566.97
2022-12-17T06:36:21.941Z,66566.97
2022-12-17T06:39:08.921Z,66570.34
2022-12-17T06:42:00.339Z,66566.63
2022-12-17T06:44:50.105Z,66567.75
2022-12-17T06:47:56.123Z,66575.16
2022-12-17T06:50:42.141Z,66576.25
2022-12-17T06:53:29.034Z,66577.03
2022-12-17T06:56:18.902Z,66575.91
2022-12-17T06:59:05.084Z,66579.50
2022-12-17T07:01:50.875Z,66581.28
2022-12-17T07:04:36.680Z,66578.38
2022-12-17T07:07:22.162Z,66586.53
2022-12-17T07:10:12.273Z,66588.00
2022-12-17T07:13:00.350Z,66585.63
2022-12-17T07:15:46.467Z,66581.38
2022-12-17T07:18:32.629Z,66586.19
2022-12-17T07:21:18.317Z,66583.06
2022-12-17T07:24:04.165Z,66588.44
2022-12-17T07:26:51.254Z,66588.44
2022-12-17T07:29:36.891Z,66595.50
2022-12-17T07:32:23.246Z,66596.03
2022-12-17T07:35:09.417Z,66595.50
2022-12-17T07:37:54.964Z,66595.69
2022-12-17T07:40:41.273Z,66601.63
2022-12-17T07:43:31.252Z,66603.53
2022-12-17T07:46:17.559Z,66603.53
2022-12-17T07:49:03.847Z,66610.59
2022-12-17T07:51:49.675Z,66618.19
2022-12-17T07:54:35.259Z,66618.41
2022-12-17T07:57:21.434Z,66619.53
2022-12-17T08:00:06.928Z,66624.22
2022-12-17T08:02:53.503Z,66624.56
2022-12-17T08:05:39.493Z,66625.13
2022-12-17T08:08:27.488Z,66625.91
2022-12-17T08:11:18.092Z,66625.56
2022-12-17T08:14:04.296Z,66630.38
2022-12-17T08:16:50.298Z,66631.50
2022-12-17T08:19:36.350Z,66630.59
2022-12-17T08:22:22.041Z,66636.88
2022-12-17T08:25:08.131Z,66639.13
2022-12-17T08:27:54.066Z,66640.22
2022-12-17T08:30:40.022Z,66640.44
2022-12-17T08:33:26.319Z,66642.13
2022-12-17T08:36:14.138Z,66642.69
2022-12-17T08:39:00.045Z,66651.75
2022-12-17T08:41:52.666Z,66652.31
2022-12-17T08:44:40.103Z,66608.34
2022-12-17T08:47:26.359Z,66663.16
2022-12-17T08:50:12.117Z,66666.88
2022-12-17T08:52:57.758Z,66663.38
2022-12-17T08:55:43.385Z,66673.22
2022-12-17T08:58:29.241Z,66676.03
2022-12-17T09:01:19.409Z,66670.53
2022-12-17T09:04:06.194Z,66676.25
2022-12-17T09:06:52.466Z,66682.75
2022-12-17T09:09:38.154Z,66686.31
2022-12-17T09:12:24.459Z,66690.00
2022-12-17T09:15:10.249Z,66702.53
2022-12-17T09:17:55.788Z,66705.13
2022-12-17T09:20:42.897Z,66713.19
2022-12-17T09:23:29.616Z,66711.28
2022-12-17T09:26:17.433Z,66707.00
2022-12-17T09:29:03.504Z,66710.38
2022-12-17T09:31:51.270Z,66717.44
2022-12-17T09:34:37.799Z,66720.25
2022-12-17T09:37:24.261Z,66714.63
2022-12-17T09:40:13.219Z,66715.97
2022-12-17T09:43:25.472Z,66725.63
2022-12-17T09:46:24.095Z,66723.59
2022-12-17T09:49:19.950Z,66723.81
2022-12-17T09:52:05.820Z,66734.47
2022-12-17T09:55:01.564Z,66734.22
2022-12-17T09:57:56.544Z,66721.94
2022-12-17T10:00:45.627Z,66719.91
2022-12-17T10:03:41.596Z,66716.75
2022-12-17T10:06:32.689Z,66718.00
2022-12-17T10:09:25.391Z,66721.03
2022-12-17T10:12:27.788Z,66720.47
2022-12-17T10:15:13.636Z,66734.47
2022-12-17T10:18:00.133Z,66733.13
2022-12-17T10:20:51.973Z,66732.22
2022-12-17T10:23:52.316Z,66733.91
2022-12-17T10:26:41.479Z,66728.63
2022-12-17T10:29:31.245Z,66719.91
2022-12-17T10:32:26.865Z,66730.66
2022-12-17T10:35:13.050Z,66730.53
2022-12-17T10:37:59.484Z,66737.03
2022-12-17T10:40:48.019Z,66741.50
2022-12-17T10:44:00.548Z,66736.34
2022-12-17T10:46:48.808Z,66738.38
2022-12-17T10:49:42.532Z,66736.69
2022-12-17T10:52:55.714Z,66742.28
2022-12-17T10:55:48.931Z,66740.06
2022-12-17T10:58:45.756Z,66739.47
2022-12-17T11:01:44.141Z,66750.13
2022-12-17T11:04:47.284Z,66752.38
2022-12-17T11:08:16.824Z,66755.19
2022-12-17T11:11:04.605Z,66752.59
2022-12-17T11:13:55.085Z,66759.28
2022-12-17T11:16:44.306Z,66766.16
2022-12-17T11:19:30.100Z,66757.97
2022-12-17T11:22:22.423Z,66749.00
2022-12-17T11:25:47.761Z,66762.03
2022-12-17T11:28:42.024Z,66756.28
2022-12-17T11:31:36.976Z,66761.09
2022-12-17T11:34:37.265Z,66757.97
2022-12-17T11:37:38.463Z,66761.31
2022-12-17T11:41:00.398Z,66771.75
2022-12-17T11:44:21.262Z,66763.91
2022-12-17T11:47:27.391Z,66759.28
2022-12-17T11:50:22.266Z,66763.00
2022-12-17T11:53:24.269Z,66761.31
2022-12-17T11:56:32.630Z,66765.81
2022-12-17T12:00:00.759Z,66771.41
2022-12-17T12:03:13.066Z,66776.78
2022-12-17T12:06:11.731Z,66777.34
2022-12-17T12:09:38.653Z,66785.75
2022-12-17T12:12:53.812Z,66784.28
2022-12-17T12:16:17.475Z,66796.94
2022-12-17T12:19:09.224Z,66796.03
2022-12-17T12:22:30.828Z,66797.84
2022-12-17T12:25:43.722Z,66797.19
2022-12-17T12:28:48.157Z,66790.78
2022-12-17T12:31:52.139Z,66779.59
2022-12-17T12:34:44.513Z,66781.28
2022-12-17T12:37:33.933Z,66781.81
2022-12-17T12:40:47.913Z,66784.41
2022-12-17T12:43:41.301Z,66787.66
2022-12-17T12:46:45.680Z,66786.53
2022-12-17T12:49:37.005Z,66791.56
2022-12-17T12:52:23.028Z,66796.94
2022-12-17T12:55:13.156Z,66793.03
2022-12-17T12:58:18.435Z,66793.59
2022-12-17T13:01:04.521Z,66793.25
2022-12-17T13:04:04.034Z,66780.38
2022-12-17T13:06:39.489Z,66789.34
2022-12-17T13:09:34.245Z,66782.25
2022-12-17T13:12:02.184Z,66787.06
2022-12-17T13:14:31.794Z,66789.66
2022-12-17T13:17:14.551Z,66782.06
2022-12-17T13:20:01.480Z,66783.72
2022-12-17T13:22:33.632Z,66777.91
2022-12-17T13:25:18.148Z,66759.88
2022-12-17T13:27:46.672Z,66755.53
2022-12-17T13:30:16.864Z,66754.03
2022-12-17T13:33:08.620Z,66768.03
2022-12-17T13:36:00.592Z,66766.16
2022-12-17T13:38:52.941Z,66759.28
2022-12-17T13:41:22.376Z,66761.69
2022-12-17T13:43:51.085Z,66749.78
2022-12-17T13:46:22.877Z,66747.88
2022-12-17T13:49:01.436Z,66748.44
2022-12-17T13:51:33.042Z,66751.03
2022-12-17T13:54:03.620Z,66752.38
2022-12-17T13:56:32.604Z,66763.91
2022-12-17T13:59:08.445Z,66763.34
2022-12-17T14:01:51.427Z,66754.75
2022-12-17T14:04:25.135Z,66737.81
2022-12-17T14:06:56.876Z,66750.13
2022-12-17T14:09:31.881Z,66751.25
2022-12-17T14:12:22.916Z,66752.16
2022-12-17T14:15:08.338Z,66728.31
2022-12-17T14:17:42.620Z,66733.13
2022-12-17T14:20:25.492Z,66739.81
2022-12-17T14:22:56.638Z,66730.53
2022-12-17T14:25:29.454Z,66736.25
2022-12-17T14:28:02.356Z,66732.78
2022-12-17T14:31:02.609Z,66731.66
2022-12-17T14:33:30.037Z,66731.66
2022-12-17T14:36:00.874Z,66732.56
2022-12-17T14:38:37.832Z,66734.22
2022-12-17T14:41:36.074Z,66720.78
2022-12-17T14:44:04.293Z,66720.47
2022-12-17T14:46:34.718Z,66724.03
2022-12-17T14:49:06.380Z,66730.53
2022-12-17T14:51:35.435Z,66716.53
2022-12-17T14:54:31.432Z,66718.78
2022-12-17T14:56:59.999Z,66716.22
2022-12-17T14:59:38.739Z,66714.09
2022-12-17T15:02:18.967Z,66719.13
2022-12-17T15:04:46.958Z,66707.59
2022-12-17T15:07:18.254Z,66701.44
2022-12-17T15:09:45.893Z,66701.09
2022-12-17T15:12:14.260Z,66707.38
2022-12-17T15:14:41.541Z,66702.53
2022-12-17T15:17:08.891Z,66704.34
2022-12-17T15:19:36.253Z,66695.25
2022-12-17T15:22:04.289Z,66693.59
2022-12-17T15:24:31.963Z,66701.22
2022-12-17T15:26:59.224Z,66711.63
2022-12-17T15:29:26.783Z,66698.84
2022-12-17T15:31:54.262Z,66705.13
2022-12-17T15:34:21.894Z,66701.44
2022-12-17T15:36:49.147Z,66705.34
2022-12-17T15:39:16.506Z,66698.97
2022-12-17T15:42:02.233Z,66691.94
2022-12-17T15:44:29.487Z,66685.63
2022-12-17T15:46:58.214Z,66694.72
2022-12-17T15:49:25.484Z,66693.81
2022-12-17T15:51:53.857Z,66686.88
2022-12-17T15:54:21.296Z,66688.00
2022-12-17T15:56:54.106Z,66688.34
2022-12-17T15:59:22.281Z,66684.66
2022-12-17T16:01:49.822Z,66682.97
2022-12-17T16:04:24.466Z,66680.16
2022-12-17T16:06:52.425Z,66669.41
2022-12-17T16:09:24.420Z,66668.97
2022-12-17T16:11:55.531Z,66665.06
2022-12-17T16:14:23.886Z,66671.00
2022-12-17T16:16:51.510Z,66666.72
2022-12-17T16:19:19.393Z,66664.16
2022-12-17T16:21:47.229Z,66665.19
2022-12-17T16:24:14.688Z,66657.22
2022-12-17T16:26:42.087Z,66663.16
2022-12-17T16:29:09.403Z,66657.56
2022-12-17T16:31:37.343Z,66660.22
2022-12-17T16:34:09.652Z,66654.97
2022-12-17T16:36:37.280Z,66652.75
2022-12-17T16:39:05.703Z,66663.16
2022-12-17T16:41:33.508Z,66615.63
2022-12-17T16:44:01.196Z,66660.56
2022-12-17T16:46:37.021Z,66653.66
2022-12-17T16:49:12.363Z,66649.38
2022-12-17T16:51:40.494Z,66647.16
2022-12-17T16:54:09.203Z,66646.25
2022-12-17T16:56:40.066Z,66652.75
2022-12-17T16:59:09.335Z,66645.81
2022-12-17T17:01:38.524Z,66645.47
2022-12-17T17:04:09.285Z,66644.91
2022-12-17T17:06:41.206Z,66648.63
2022-12-17T17:09:08.965Z,66647.72
2022-12-17T17:11:36.203Z,66602.53
2022-12-17T17:14:04.669Z,66634.28
2022-12-17T17:16:34.124Z,66627.59
2022-12-17T17:19:02.306Z,66616.94
2022-12-17T17:21:34.456Z,66621.44
2022-12-17T17:24:16.805Z,66620.75
2022-12-17T17:26:48.375Z,66626.25
2022-12-17T17:29:15.825Z,66629.81
2022-12-17T17:34:32.543Z,66657.78
2022-12-17T17:36:59.947Z,66671.56
2022-12-17T17:39:27.587Z,66681.84
2022-12-17T17:41:55.574Z,66681.84
2022-12-17T17:44:23.239Z,66675.47
2022-12-17T17:46:50.822Z,66662.81
2022-12-17T17:49:18.354Z,66657.44
2022-12-17T17:52:09.016Z,66649.38
2022-12-17T17:54:32.911Z,66644.72
2022-12-17T17:57:00.445Z,66641.91
2022-12-17T17:59:33.201Z,66651.41
2022-12-17T18:02:03.433Z,66634.28
2022-12-17T18:04:31.835Z,66621.44
2022-12-17T18:09:46.682Z,66587.09
2022-12-17T18:12:32.831Z,66576.13
2022-12-17T18:15:17.458Z,66566.06
2022-12-17T18:17:49.650Z,66566.06
2022-12-17T18:20:17.199Z,66565.84
2022-12-17T18:22:46.143Z,66563.06
2022-12-17T18:25:15.868Z,66547.97
2022-12-17T18:27:43.865Z,66543.84
2022-12-17T18:30:11.820Z,66542.75
2022-12-17T18:32:39.404Z,66530.88
2022-12-17T18:35:07.239Z,66526.41
2022-12-17T18:37:34.354Z,66520.28
2022-12-17T18:40:01.639Z,66527.09
2022-12-17T18:42:47.644Z,66518.94
2022-12-17T18:45:15.083Z,66507.41
2022-12-17T18:47:44.269Z,66506.09
2022-12-17T18:50:12.349Z,66502.16
2022-12-17T18:52:39.619Z,66500.69
2022-12-17T18:55:10.321Z,66502.72
2022-12-17T18:57:37.608Z,66501.63
2022-12-17T19:00:06.695Z,66501.38
2022-12-17T19:02:34.578Z,66454.16
2022-12-17T19:05:02.305Z,66495.13
2022-12-17T19:07:29.664Z,66507.41
2022-12-17T19:09:56.949Z,66504.06
2022-12-17T19:12:24.183Z,66501.28
2022-12-17T19:14:51.532Z,66500.16
2022-12-17T19:17:18.913Z,66498.25
2022-12-17T19:19:47.627Z,66497.47
2022-12-17T19:22:14.827Z,66489.88
2022-12-17T19:24:42.263Z,66485.97
2022-12-17T19:27:09.532Z,66477.59
2022-12-17T19:29:37.117Z,66475.69
2022-12-17T19:32:04.850Z,66471.44
2022-12-17T19:34:35.215Z,66467.84
2022-12-17T19:37:03.132Z,66460.28
2022-12-17T19:39:30.539Z,66452.13
2022-12-17T19:41:58.008Z,66440.94
2022-12-17T19:44:25.559Z,66431.44
2022-12-17T19:46:52.866Z,66422.19
2022-12-17T19:49:20.999Z,66423.97
2022-12-17T19:51:48.791Z,66422.50
2022-12-17T19:54:16.175Z,66427.34
2022-12-17T19:56:45.199Z,66426.75
2022-12-17T19:59:13.527Z,66431.00
2022-12-17T20:01:44.002Z,66425.88
2022-12-17T20:04:16.426Z,66420.84
2022-12-17T20:06:45.005Z,66420.63
2022-12-17T20:09:14.147Z,66415.28
2022-12-17T20:11:41.817Z,66408.56
2022-12-17T20:14:09.391Z,66409.13
2022-12-17T20:16:39.990Z,66413.16
2022-12-17T20:19:12.082Z,66406.34
2022-12-17T20:21:39.811Z,66406.09
2022-12-17T20:24:07.450Z,66401.88
2022-12-17T20:26:36.942Z,66409.25
2022-12-17T20:29:05.729Z,66398.72
2022-12-17T20:31:34.205Z,66401.09
2022-12-17T20:34:06.637Z,66396.06
2022-12-17T20:36:35.171Z,66391.59
2022-12-17T20:39:02.960Z,66385.69
2022-12-17T20:41:31.045Z,66386.81
2022-12-17T20:44:02.146Z,66381.78
2022-12-17T20:46:29.537Z,66386.91
2022-12-17T20:49:00.407Z,66381.22
2022-12-17T20:51:29.380Z,66376.88
2022-12-17T20:53:58.580Z,66370.59
2022-12-17T20:56:29.846Z,66375.97
2022-12-17T20:59:04.281Z,66380.09
2022-12-17T21:01:34.472Z,66381.78
2022-12-17T21:04:03.795Z,66387.69
2022-12-17T21:06:36.504Z,66384.56
2022-12-17T21:09:04.584Z,66374.50
2022-12-17T21:11:34.207Z,66370.06
2022-12-17T21:14:07.618Z,66365.91
2022-12-17T21:16:36.253Z,66357.22
2022-12-17T21:19:04.682Z,66370.16
2022-12-17T21:21:36.267Z,66344.78
2022-12-17T21:24:04.345Z,66386.34
2022-12-17T21:26:35.209Z,66388.25
2022-12-17T21:29:04.802Z,66389.03
2022-12-17T21:31:47.508Z,66391.81
2022-12-17T21:34:21.878Z,66393.63
2022-12-17T21:36:50.536Z,66385.47
2022-12-17T21:39:19.380Z,66386.34
2022-12-17T21:42:06.784Z,66368.72
2022-12-17T21:44:34.316Z,66362.25
2022-12-17T21:47:02.273Z,66366.25
2022-12-17T21:49:29.771Z,66369.59
2022-12-17T21:51:59.265Z,66347.72
2022-12-17T21:54:27.064Z,66342.50
2022-12-17T21:56:54.241Z,66340.47
2022-12-17T21:59:21.986Z,66337.47
2022-12-17T22:01:50.902Z,66339.13
2022-12-17T22:04:18.537Z,66332.66
2022-12-17T22:06:52.080Z,66291.59
2022-12-17T22:09:37.071Z,66325.41
2022-12-17T22:12:31.650Z,66326.88
2022-12-17T22:14:59.240Z,66328.22
2022-12-17T22:17:27.390Z,66333.56
2022-12-17T22:19:54.597Z,66335.22
2022-12-17T22:22:21.688Z,66336.00
2022-12-17T22:24:48.981Z,66336.13
2022-12-17T22:27:16.369Z,66327.97
2022-12-17T22:30:02.030Z,66323.41
2022-12-17T22:32:47.763Z,66326.63
2022-12-17T22:37:23.682Z,66327.31
2022-12-17T22:40:31.829Z,66341.16
2022-12-17T22:44:49.260Z,66341.38
2022-12-17T22:44:51.560Z,66340.25
2022-12-17T22:46:25.853Z,66329.31
2022-12-17T22:48:53.129Z,66335.03
2022-12-17T22:51:24.610Z,66342.69
2022-12-17T22:54:00.230Z,66340.81
2022-12-17T22:56:51.836Z,66340.81
2022-12-17T22:59:16.965Z,66333.44
2022-12-17T23:01:44.378Z,66334.34
2022-12-17T23:04:16.220Z,66337.47
2022-12-17T23:06:45.535Z,66332.44
2022-12-17T23:09:14.642Z,66330.22
2022-12-17T23:11:41.937Z,66312.03
2022-12-17T23:14:09.382Z,66299.53
2022-12-17T23:16:40.536Z,66285.50
2022-12-17T23:19:08.283Z,66283.91
2022-12-17T23:21:36.159Z,66279.34
2022-12-17T23:24:04.502Z,66245.53
2022-12-17T23:26:34.974Z,66289.38
2022-12-17T23:29:07.165Z,66293.63
2022-12-17T23:31:38.079Z,66297.63
2022-12-17T23:34:06.769Z,66296.53
2022-12-17T23:36:35.565Z,66296.75
2022-12-17T23:39:03.812Z,66300.66
2022-12-17T23:41:31.384Z,66303.44
2022-12-17T23:43:58.936Z,66305.69
2022-12-17T23:46:27.643Z,66291.16
2022-12-17T23:48:55.351Z,66286.72
2022-12-17T23:51:23.830Z,66281.47
2022-12-17T23:53:52.057Z,66273.00
2022-12-17T23:56:24.700Z,66266.31
2022-12-17T23:58:57.793Z,66268.13
